sensor_id;sensor_type;location;lat;lon;timestamp;P1;durP1;ratioP1;P2;durP2;ratioP2
56043;SDS011;41912;51.022;3.664;2023-02-04T00:01:46;18.10;;;7.55;;
56043;SDS011;41912;51.022;3.664;2023-02-04T00:04:12;14.20;;;7.30;;
56043;SDS011;41912;51.022;3.664;2023-02-04T00:06:38;17.20;;;7.43;;
56043;SDS011;41912;51.022;3.664;2023-02-04T00:09:03;20.42;;;7.10;;
56043;SDS011;41912;51.022;3.664;2023-02-04T00:11:30;17.88;;;6.88;;
56043;SDS011;41912;51.022;3.664;2023-02-04T00:13:56;17.20;;;7.30;;
56043;SDS011;41912;51.022;3.664;2023-02-04T00:16:21;21.75;;;6.78;;
56043;SDS011;41912;51.022;3.664;2023-02-04T00:18:47;15.70;;;7.03;;
56043;SDS011;41912;51.022;3.664;2023-02-04T00:21:13;13.02;;;6.78;;
56043;SDS011;41912;51.022;3.664;2023-02-04T00:23:38;15.43;;;6.40;;
56043;SDS011;41912;51.022;3.664;2023-02-04T00:26:05;9.82;;;5.05;;
56043;SDS011;41912;51.022;3.664;2023-02-04T00:28:31;13.35;;;4.95;;
56043;SDS011;41912;51.022;3.664;2023-02-04T00:30:56;13.00;;;5.00;;
56043;SDS011;41912;51.022;3.664;2023-02-04T00:33:22;10.05;;;4.40;;
56043;SDS011;41912;51.022;3.664;2023-02-04T00:35:47;11.02;;;4.18;;
56043;SDS011;41912;51.022;3.664;2023-02-04T00:38:13;17.38;;;4.60;;
56043;SDS011;41912;51.022;3.664;2023-02-04T00:40:39;8.10;;;4.15;;
56043;SDS011;41912;51.022;3.664;2023-02-04T00:43:04;10.73;;;3.53;;
56043;SDS011;41912;51.022;3.664;2023-02-04T00:45:30;11.60;;;3.22;;
56043;SDS011;41912;51.022;3.664;2023-02-04T00:47:56;15.32;;;3.78;;
56043;SDS011;41912;51.022;3.664;2023-02-04T00:50:22;5.85;;;3.35;;
56043;SDS011;41912;51.022;3.664;2023-02-04T00:52:48;9.88;;;3.05;;
56043;SDS011;41912;51.022;3.664;2023-02-04T00:55:14;10.82;;;2.97;;
56043;SDS011;41912;51.022;3.664;2023-02-04T00:57:41;9.57;;;3.25;;
56043;SDS011;41912;51.022;3.664;2023-02-04T01:00:07;12.95;;;2.75;;
56043;SDS011;41912;51.022;3.664;2023-02-04T01:02:33;11.43;;;3.30;;
56043;SDS011;41912;51.022;3.664;2023-02-04T01:04:59;9.13;;;2.97;;
56043;SDS011;41912;51.022;3.664;2023-02-04T01:07:24;12.25;;;3.60;;
56043;SDS011;41912;51.022;3.664;2023-02-04T01:09:50;8.27;;;3.00;;
56043;SDS011;41912;51.022;3.664;2023-02-04T01:12:16;13.10;;;3.45;;
56043;SDS011;41912;51.022;3.664;2023-02-04T01:14:41;10.25;;;3.70;;
56043;SDS011;41912;51.022;3.664;2023-02-04T01:17:07;8.68;;;4.07;;
56043;SDS011;41912;51.022;3.664;2023-02-04T01:19:33;8.00;;;4.30;;
56043;SDS011;41912;51.022;3.664;2023-02-04T01:21:58;12.75;;;4.32;;
56043;SDS011;41912;51.022;3.664;2023-02-04T01:24:24;12.23;;;4.40;;
56043;SDS011;41912;51.022;3.664;2023-02-04T01:26:50;12.15;;;4.80;;
56043;SDS011;41912;51.022;3.664;2023-02-04T01:29:15;13.20;;;4.97;;
56043;SDS011;41912;51.022;3.664;2023-02-04T01:31:41;10.85;;;4.18;;
56043;SDS011;41912;51.022;3.664;2023-02-04T01:34:07;12.82;;;4.90;;
56043;SDS011;41912;51.022;3.664;2023-02-04T01:36:32;11.23;;;4.60;;
56043;SDS011;41912;51.022;3.664;2023-02-04T01:38:58;12.52;;;5.00;;
56043;SDS011;41912;51.022;3.664;2023-02-04T01:41:25;16.95;;;5.20;;
56043;SDS011;41912;51.022;3.664;2023-02-04T01:43:51;17.45;;;4.90;;
56043;SDS011;41912;51.022;3.664;2023-02-04T01:46:17;11.30;;;4.95;;
56043;SDS011;41912;51.022;3.664;2023-02-04T01:48:43;15.95;;;5.70;;
56043;SDS011;41912;51.022;3.664;2023-02-04T01:51:12;15.18;;;5.88;;
56043;SDS011;41912;51.022;3.664;2023-02-04T01:53:41;16.25;;;6.32;;
56043;SDS011;41912;51.022;3.664;2023-02-04T01:58:46;10.95;;;4.65;;
56043;SDS011;41912;51.022;3.664;2023-02-04T02:01:13;14.50;;;5.00;;
56043;SDS011;41912;51.022;3.664;2023-02-04T02:03:57;13.50;;;4.53;;
56043;SDS011;41912;51.022;3.664;2023-02-04T02:06:23;12.20;;;5.80;;
56043;SDS011;41912;51.022;3.664;2023-02-04T02:08:49;11.45;;;4.72;;
56043;SDS011;41912;51.022;3.664;2023-02-04T02:11:15;10.25;;;4.40;;
56043;SDS011;41912;51.022;3.664;2023-02-04T02:13:41;17.63;;;5.40;;
56043;SDS011;41912;51.022;3.664;2023-02-04T02:16:06;11.93;;;4.97;;
56043;SDS011;41912;51.022;3.664;2023-02-04T02:18:32;10.30;;;4.65;;
56043;SDS011;41912;51.022;3.664;2023-02-04T02:20:58;8.30;;;4.43;;
56043;SDS011;41912;51.022;3.664;2023-02-04T02:23:45;7.60;;;4.18;;
56043;SDS011;41912;51.022;3.664;2023-02-04T02:26:19;9.90;;;4.47;;
56043;SDS011;41912;51.022;3.664;2023-02-04T02:28:45;8.93;;;4.57;;
56043;SDS011;41912;51.022;3.664;2023-02-04T02:31:12;12.10;;;5.00;;
56043;SDS011;41912;51.022;3.664;2023-02-04T02:33:39;15.63;;;4.88;;
56043;SDS011;41912;51.022;3.664;2023-02-04T02:36:05;9.20;;;4.75;;
56043;SDS011;41912;51.022;3.664;2023-02-04T02:38:31;12.65;;;4.50;;
56043;SDS011;41912;51.022;3.664;2023-02-04T02:40:57;16.60;;;4.82;;
56043;SDS011;41912;51.022;3.664;2023-02-04T02:43:24;10.00;;;4.80;;
56043;SDS011;41912;51.022;3.664;2023-02-04T02:45:52;15.57;;;4.82;;
56043;SDS011;41912;51.022;3.664;2023-02-04T02:48:20;14.93;;;4.90;;
56043;SDS011;41912;51.022;3.664;2023-02-04T02:50:46;10.80;;;4.40;;
56043;SDS011;41912;51.022;3.664;2023-02-04T02:53:14;11.80;;;5.30;;
56043;SDS011;41912;51.022;3.664;2023-02-04T02:55:41;13.32;;;5.20;;
56043;SDS011;41912;51.022;3.664;2023-02-04T02:58:12;13.68;;;4.60;;
56043;SDS011;41912;51.022;3.664;2023-02-04T03:00:42;19.17;;;5.25;;
56043;SDS011;41912;51.022;3.664;2023-02-04T03:03:12;14.60;;;5.90;;
56043;SDS011;41912;51.022;3.664;2023-02-04T03:05:42;10.50;;;5.60;;
56043;SDS011;41912;51.022;3.664;2023-02-04T03:08:11;16.77;;;5.60;;
56043;SDS011;41912;51.022;3.664;2023-02-04T03:10:38;11.80;;;5.40;;
56043;SDS011;41912;51.022;3.664;2023-02-04T03:13:05;17.08;;;6.07;;
56043;SDS011;41912;51.022;3.664;2023-02-04T03:15:31;17.35;;;6.88;;
56043;SDS011;41912;51.022;3.664;2023-02-04T03:17:57;23.75;;;6.60;;
56043;SDS011;41912;51.022;3.664;2023-02-04T03:20:24;17.23;;;7.13;;
56043;SDS011;41912;51.022;3.664;2023-02-04T03:22:52;16.10;;;6.47;;
56043;SDS011;41912;51.022;3.664;2023-02-04T03:25:19;18.88;;;7.07;;
56043;SDS011;41912;51.022;3.664;2023-02-04T03:27:48;14.57;;;6.95;;
56043;SDS011;41912;51.022;3.664;2023-02-04T03:30:15;18.65;;;7.13;;
56043;SDS011;41912;51.022;3.664;2023-02-04T03:32:40;16.73;;;7.10;;
56043;SDS011;41912;51.022;3.664;2023-02-04T03:35:06;16.67;;;7.55;;
56043;SDS011;41912;51.022;3.664;2023-02-04T03:37:32;15.65;;;7.45;;
56043;SDS011;41912;51.022;3.664;2023-02-04T03:39:58;17.75;;;7.93;;
56043;SDS011;41912;51.022;3.664;2023-02-04T03:42:23;16.95;;;7.90;;
56043;SDS011;41912;51.022;3.664;2023-02-04T03:44:49;17.13;;;8.60;;
56043;SDS011;41912;51.022;3.664;2023-02-04T03:47:15;16.38;;;7.47;;
56043;SDS011;41912;51.022;3.664;2023-02-04T03:49:41;15.50;;;7.90;;
56043;SDS011;41912;51.022;3.664;2023-02-04T03:52:06;17.92;;;8.30;;
56043;SDS011;41912;51.022;3.664;2023-02-04T03:54:32;14.18;;;7.63;;
56043;SDS011;41912;51.022;3.664;2023-02-04T03:56:57;17.05;;;8.52;;
56043;SDS011;41912;51.022;3.664;2023-02-04T03:59:23;13.90;;;8.52;;
56043;SDS011;41912;51.022;3.664;2023-02-04T04:01:49;20.73;;;8.55;;
56043;SDS011;41912;51.022;3.664;2023-02-04T04:04:16;15.07;;;8.60;;
56043;SDS011;41912;51.022;3.664;2023-02-04T04:06:42;14.63;;;9.43;;
56043;SDS011;41912;51.022;3.664;2023-02-04T04:09:08;17.67;;;9.40;;
56043;SDS011;41912;51.022;3.664;2023-02-04T04:11:33;15.60;;;9.02;;
56043;SDS011;41912;51.022;3.664;2023-02-04T04:13:59;16.40;;;9.35;;
56043;SDS011;41912;51.022;3.664;2023-02-04T04:16:25;16.73;;;9.27;;
56043;SDS011;41912;51.022;3.664;2023-02-04T04:18:51;17.75;;;9.00;;
56043;SDS011;41912;51.022;3.664;2023-02-04T04:21:17;18.85;;;9.43;;
56043;SDS011;41912;51.022;3.664;2023-02-04T04:23:42;19.95;;;9.18;;
56043;SDS011;41912;51.022;3.664;2023-02-04T04:26:08;16.17;;;9.27;;
56043;SDS011;41912;51.022;3.664;2023-02-04T04:28:33;15.85;;;8.77;;
56043;SDS011;41912;51.022;3.664;2023-02-04T04:30:59;20.33;;;9.15;;
56043;SDS011;41912;51.022;3.664;2023-02-04T04:33:25;18.23;;;9.32;;
56043;SDS011;41912;51.022;3.664;2023-02-04T04:35:50;17.17;;;9.35;;
56043;SDS011;41912;51.022;3.664;2023-02-04T04:38:16;20.38;;;9.50;;
56043;SDS011;41912;51.022;3.664;2023-02-04T04:40:42;13.38;;;8.48;;
56043;SDS011;41912;51.022;3.664;2023-02-04T04:43:07;18.50;;;8.93;;
56043;SDS011;41912;51.022;3.664;2023-02-04T04:45:33;19.60;;;10.23;;
56043;SDS011;41912;51.022;3.664;2023-02-04T04:47:58;14.75;;;9.40;;
56043;SDS011;41912;51.022;3.664;2023-02-04T04:50:24;16.67;;;9.75;;
56043;SDS011;41912;51.022;3.664;2023-02-04T04:52:50;15.55;;;10.20;;
56043;SDS011;41912;51.022;3.664;2023-02-04T04:55:15;15.82;;;10.15;;
56043;SDS011;41912;51.022;3.664;2023-02-04T04:57:41;16.83;;;10.85;;
56043;SDS011;41912;51.022;3.664;2023-02-04T05:00:07;17.70;;;11.13;;
56043;SDS011;41912;51.022;3.664;2023-02-04T05:02:35;20.70;;;11.88;;
56043;SDS011;41912;51.022;3.664;2023-02-04T05:05:01;25.80;;;12.80;;
56043;SDS011;41912;51.022;3.664;2023-02-04T05:07:30;22.88;;;13.30;;
56043;SDS011;41912;51.022;3.664;2023-02-04T05:09:55;23.58;;;13.18;;
56043;SDS011;41912;51.022;3.664;2023-02-04T05:12:21;20.45;;;14.13;;
56043;SDS011;41912;51.022;3.664;2023-02-04T05:14:46;23.10;;;12.63;;
56043;SDS011;41912;51.022;3.664;2023-02-04T05:17:12;23.02;;;12.68;;
56043;SDS011;41912;51.022;3.664;2023-02-04T05:19:38;25.98;;;13.40;;
56043;SDS011;41912;51.022;3.664;2023-02-04T05:22:03;28.20;;;13.75;;
56043;SDS011;41912;51.022;3.664;2023-02-04T05:24:29;22.00;;;13.52;;
56043;SDS011;41912;51.022;3.664;2023-02-04T05:26:55;23.65;;;13.25;;
56043;SDS011;41912;51.022;3.664;2023-02-04T05:29:20;21.52;;;14.13;;
56043;SDS011;41912;51.022;3.664;2023-02-04T05:31:46;32.38;;;14.38;;
56043;SDS011;41912;51.022;3.664;2023-02-04T05:34:11;25.45;;;14.52;;
56043;SDS011;41912;51.022;3.664;2023-02-04T05:36:37;24.73;;;14.18;;
56043;SDS011;41912;51.022;3.664;2023-02-04T05:39:03;26.60;;;14.50;;
56043;SDS011;41912;51.022;3.664;2023-02-04T05:41:28;24.80;;;13.02;;
56043;SDS011;41912;51.022;3.664;2023-02-04T05:43:54;27.05;;;14.35;;
56043;SDS011;41912;51.022;3.664;2023-02-04T05:46:20;24.10;;;13.32;;
56043;SDS011;41912;51.022;3.664;2023-02-04T05:48:45;29.20;;;15.00;;
56043;SDS011;41912;51.022;3.664;2023-02-04T05:51:11;30.83;;;15.23;;
56043;SDS011;41912;51.022;3.664;2023-02-04T05:53:36;28.88;;;14.30;;
56043;SDS011;41912;51.022;3.664;2023-02-04T05:56:02;24.48;;;13.63;;
56043;SDS011;41912;51.022;3.664;2023-02-04T05:58:28;30.75;;;13.52;;
56043;SDS011;41912;51.022;3.664;2023-02-04T06:01:00;25.58;;;14.07;;
56043;SDS011;41912;51.022;3.664;2023-02-04T06:03:27;27.88;;;14.35;;
56043;SDS011;41912;51.022;3.664;2023-02-04T06:05:53;33.67;;;13.88;;
56043;SDS011;41912;51.022;3.664;2023-02-04T06:08:19;25.85;;;14.32;;
56043;SDS011;41912;51.022;3.664;2023-02-04T06:10:45;29.60;;;14.88;;
56043;SDS011;41912;51.022;3.664;2023-02-04T06:13:10;24.95;;;14.05;;
56043;SDS011;41912;51.022;3.664;2023-02-04T06:15:36;27.95;;;14.02;;
56043;SDS011;41912;51.022;3.664;2023-02-04T06:18:02;30.30;;;14.75;;
56043;SDS011;41912;51.022;3.664;2023-02-04T06:20:27;27.20;;;14.32;;
56043;SDS011;41912;51.022;3.664;2023-02-04T06:22:53;33.45;;;14.93;;
56043;SDS011;41912;51.022;3.664;2023-02-04T06:25:19;29.60;;;13.88;;
56043;SDS011;41912;51.022;3.664;2023-02-04T06:27:45;21.92;;;12.52;;
56043;SDS011;41912;51.022;3.664;2023-02-04T06:30:11;29.33;;;13.10;;
56043;SDS011;41912;51.022;3.664;2023-02-04T06:32:38;23.73;;;12.90;;
56043;SDS011;41912;51.022;3.664;2023-02-04T06:35:03;26.80;;;11.95;;
56043;SDS011;41912;51.022;3.664;2023-02-04T06:37:29;22.15;;;10.43;;
56043;SDS011;41912;51.022;3.664;2023-02-04T06:39:55;30.38;;;11.25;;
56043;SDS011;41912;51.022;3.664;2023-02-04T06:42:21;26.08;;;10.32;;
56043;SDS011;41912;51.022;3.664;2023-02-04T06:44:49;21.85;;;10.20;;
56043;SDS011;41912;51.022;3.664;2023-02-04T06:47:15;24.80;;;9.93;;
56043;SDS011;41912;51.022;3.664;2023-02-04T06:49:40;26.83;;;10.85;;
56043;SDS011;41912;51.022;3.664;2023-02-04T06:52:06;20.13;;;9.82;;
56043;SDS011;41912;51.022;3.664;2023-02-04T06:54:32;24.73;;;9.52;;
56043;SDS011;41912;51.022;3.664;2023-02-04T06:56:57;20.52;;;9.88;;
56043;SDS011;41912;51.022;3.664;2023-02-04T06:59:30;24.42;;;10.18;;
56043;SDS011;41912;51.022;3.664;2023-02-04T07:01:57;21.55;;;10.02;;
56043;SDS011;41912;51.022;3.664;2023-02-04T07:04:23;24.40;;;10.15;;
56043;SDS011;41912;51.022;3.664;2023-02-04T07:06:49;21.33;;;10.25;;
56043;SDS011;41912;51.022;3.664;2023-02-04T07:09:14;18.75;;;9.10;;
56043;SDS011;41912;51.022;3.664;2023-02-04T07:11:40;22.40;;;8.95;;
56043;SDS011;41912;51.022;3.664;2023-02-04T07:14:05;21.70;;;8.63;;
56043;SDS011;41912;51.022;3.664;2023-02-04T07:16:31;21.17;;;10.18;;
56043;SDS011;41912;51.022;3.664;2023-02-04T07:18:57;21.83;;;9.90;;
56043;SDS011;41912;51.022;3.664;2023-02-04T07:21:22;21.33;;;10.45;;
56043;SDS011;41912;51.022;3.664;2023-02-04T07:23:48;20.08;;;9.32;;
56043;SDS011;41912;51.022;3.664;2023-02-04T07:26:13;21.48;;;9.23;;
56043;SDS011;41912;51.022;3.664;2023-02-04T07:28:39;16.63;;;8.95;;
56043;SDS011;41912;51.022;3.664;2023-02-04T07:31:05;17.50;;;8.88;;
56043;SDS011;41912;51.022;3.664;2023-02-04T07:33:31;23.65;;;10.55;;
56043;SDS011;41912;51.022;3.664;2023-02-04T07:35:56;24.67;;;9.85;;
56043;SDS011;41912;51.022;3.664;2023-02-04T07:38:22;19.50;;;9.00;;
56043;SDS011;41912;51.022;3.664;2023-02-04T07:40:48;20.85;;;10.02;;
56043;SDS011;41912;51.022;3.664;2023-02-04T07:43:13;24.60;;;9.82;;
56043;SDS011;41912;51.022;3.664;2023-02-04T07:45:40;24.30;;;9.43;;
56043;SDS011;41912;51.022;3.664;2023-02-04T07:48:05;20.08;;;9.73;;
56043;SDS011;41912;51.022;3.664;2023-02-04T07:50:31;26.92;;;9.85;;
56043;SDS011;41912;51.022;3.664;2023-02-04T07:52:57;28.50;;;10.35;;
56043;SDS011;41912;51.022;3.664;2023-02-04T07:55:22;22.50;;;9.70;;
56043;SDS011;41912;51.022;3.664;2023-02-04T07:57:48;25.10;;;10.63;;
56043;SDS011;41912;51.022;3.664;2023-02-04T08:00:14;21.48;;;9.55;;
56043;SDS011;41912;51.022;3.664;2023-02-04T08:02:40;23.48;;;9.70;;
56043;SDS011;41912;51.022;3.664;2023-02-04T08:05:06;20.83;;;9.73;;
56043;SDS011;41912;51.022;3.664;2023-02-04T08:07:33;26.27;;;9.82;;
56043;SDS011;41912;51.022;3.664;2023-02-04T08:09:58;23.58;;;9.65;;
56043;SDS011;41912;51.022;3.664;2023-02-04T08:12:24;19.85;;;9.60;;
56043;SDS011;41912;51.022;3.664;2023-02-04T08:14:49;22.00;;;9.60;;
56043;SDS011;41912;51.022;3.664;2023-02-04T08:17:15;23.92;;;10.50;;
56043;SDS011;41912;51.022;3.664;2023-02-04T08:19:41;26.85;;;10.18;;
56043;SDS011;41912;51.022;3.664;2023-02-04T08:22:06;21.55;;;9.90;;
56043;SDS011;41912;51.022;3.664;2023-02-04T08:24:32;28.10;;;10.25;;
56043;SDS011;41912;51.022;3.664;2023-02-04T08:26:57;18.77;;;8.75;;
56043;SDS011;41912;51.022;3.664;2023-02-04T08:29:23;26.40;;;8.95;;
56043;SDS011;41912;51.022;3.664;2023-02-04T08:31:51;21.30;;;9.32;;
56043;SDS011;41912;51.022;3.664;2023-02-04T08:34:17;21.58;;;8.75;;
56043;SDS011;41912;51.022;3.664;2023-02-04T08:36:43;32.35;;;10.45;;
56043;SDS011;41912;51.022;3.664;2023-02-04T08:39:09;22.20;;;9.32;;
56043;SDS011;41912;51.022;3.664;2023-02-04T08:41:36;19.58;;;8.20;;
56043;SDS011;41912;51.022;3.664;2023-02-04T08:44:02;21.52;;;10.13;;
56043;SDS011;41912;51.022;3.664;2023-02-04T08:46:28;25.48;;;9.55;;
56043;SDS011;41912;51.022;3.664;2023-02-04T08:48:54;23.63;;;8.70;;
56043;SDS011;41912;51.022;3.664;2023-02-04T08:51:19;22.58;;;8.10;;
56043;SDS011;41912;51.022;3.664;2023-02-04T08:53:45;17.88;;;8.27;;
56043;SDS011;41912;51.022;3.664;2023-02-04T08:56:11;21.45;;;8.77;;
56043;SDS011;41912;51.022;3.664;2023-02-04T08:58:40;22.92;;;9.32;;
56043;SDS011;41912;51.022;3.664;2023-02-04T09:01:06;19.00;;;8.30;;
56043;SDS011;41912;51.022;3.664;2023-02-04T09:03:35;16.88;;;8.35;;
56043;SDS011;41912;51.022;3.664;2023-02-04T09:06:01;17.02;;;8.07;;
56043;SDS011;41912;51.022;3.664;2023-02-04T09:08:27;17.30;;;8.18;;
56043;SDS011;41912;51.022;3.664;2023-02-04T09:10:52;20.35;;;8.20;;
56043;SDS011;41912;51.022;3.664;2023-02-04T09:13:18;20.38;;;9.05;;
56043;SDS011;41912;51.022;3.664;2023-02-04T09:15:43;24.63;;;8.70;;
56043;SDS011;41912;51.022;3.664;2023-02-04T09:18:09;21.42;;;8.55;;
56043;SDS011;41912;51.022;3.664;2023-02-04T09:20:43;19.33;;;7.95;;
56043;SDS011;41912;51.022;3.664;2023-02-04T09:23:09;20.70;;;8.25;;
56043;SDS011;41912;51.022;3.664;2023-02-04T09:25:36;19.45;;;8.68;;
56043;SDS011;41912;51.022;3.664;2023-02-04T09:28:06;14.82;;;7.78;;
56043;SDS011;41912;51.022;3.664;2023-02-04T09:30:37;16.05;;;8.68;;
56043;SDS011;41912;51.022;3.664;2023-02-04T09:33:03;22.27;;;7.47;;
56043;SDS011;41912;51.022;3.664;2023-02-04T09:35:28;23.13;;;8.88;;
56043;SDS011;41912;51.022;3.664;2023-02-04T09:37:54;12.70;;;6.47;;
56043;SDS011;41912;51.022;3.664;2023-02-04T09:40:20;26.98;;;7.65;;
56043;SDS011;41912;51.022;3.664;2023-02-04T09:42:49;17.23;;;7.68;;
56043;SDS011;41912;51.022;3.664;2023-02-04T09:45:17;20.42;;;8.27;;
56043;SDS011;41912;51.022;3.664;2023-02-04T09:48:02;16.85;;;7.63;;
56043;SDS011;41912;51.022;3.664;2023-02-04T09:50:29;19.13;;;7.65;;
56043;SDS011;41912;51.022;3.664;2023-02-04T09:52:57;18.15;;;7.07;;
56043;SDS011;41912;51.022;3.664;2023-02-04T09:55:29;16.88;;;7.35;;
56043;SDS011;41912;51.022;3.664;2023-02-04T09:57:57;15.32;;;6.00;;
56043;SDS011;41912;51.022;3.664;2023-02-04T10:00:25;17.77;;;6.20;;
56043;SDS011;41912;51.022;3.664;2023-02-04T10:02:53;16.52;;;6.93;;
56043;SDS011;41912;51.022;3.664;2023-02-04T10:05:28;18.27;;;6.00;;
56043;SDS011;41912;51.022;3.664;2023-02-04T10:07:55;14.18;;;5.50;;
56043;SDS011;41912;51.022;3.664;2023-02-04T10:10:23;16.52;;;6.03;;
56043;SDS011;41912;51.022;3.664;2023-02-04T10:12:51;9.68;;;5.03;;
56043;SDS011;41912;51.022;3.664;2023-02-04T10:15:20;18.30;;;5.63;;
56043;SDS011;41912;51.022;3.664;2023-02-04T10:17:47;17.92;;;5.30;;
56043;SDS011;41912;51.022;3.664;2023-02-04T10:20:20;13.02;;;5.53;;
56043;SDS011;41912;51.022;3.664;2023-02-04T10:22:47;16.42;;;5.53;;
56043;SDS011;41912;51.022;3.664;2023-02-04T10:25:16;18.63;;;5.90;;
56043;SDS011;41912;51.022;3.664;2023-02-04T10:27:57;12.50;;;5.90;;
56043;SDS011;41912;51.022;3.664;2023-02-04T10:30:25;18.60;;;5.50;;
56043;SDS011;41912;51.022;3.664;2023-02-04T10:32:52;15.07;;;5.30;;
56043;SDS011;41912;51.022;3.664;2023-02-04T10:35:19;15.75;;;5.60;;
56043;SDS011;41912;51.022;3.664;2023-02-04T10:37:45;12.88;;;5.28;;
56043;SDS011;41912;51.022;3.664;2023-02-04T10:40:25;22.77;;;6.68;;
56043;SDS011;41912;51.022;3.664;2023-02-04T10:42:53;11.83;;;5.00;;
56043;SDS011;41912;51.022;3.664;2023-02-04T10:45:20;15.95;;;5.93;;
56043;SDS011;41912;51.022;3.664;2023-02-04T10:47:51;14.57;;;5.22;;
56043;SDS011;41912;51.022;3.664;2023-02-04T10:50:18;13.02;;;6.25;;
56043;SDS011;41912;51.022;3.664;2023-02-04T10:52:52;13.60;;;6.55;;
56043;SDS011;41912;51.022;3.664;2023-02-04T10:55:40;19.95;;;5.95;;
56043;SDS011;41912;51.022;3.664;2023-02-04T10:58:08;14.20;;;5.53;;
56043;SDS011;41912;51.022;3.664;2023-02-04T11:00:36;17.88;;;5.90;;
56043;SDS011;41912;51.022;3.664;2023-02-04T11:03:14;16.50;;;6.03;;
56043;SDS011;41912;51.022;3.664;2023-02-04T11:05:47;18.15;;;5.95;;
56043;SDS011;41912;51.022;3.664;2023-02-04T11:08:21;17.33;;;5.22;;
56043;SDS011;41912;51.022;3.664;2023-02-04T11:11:02;17.83;;;5.57;;
56043;SDS011;41912;51.022;3.664;2023-02-04T11:13:42;12.93;;;5.60;;
56043;SDS011;41912;51.022;3.664;2023-02-04T11:16:12;15.90;;;5.35;;
56043;SDS011;41912;51.022;3.664;2023-02-04T11:18:59;19.00;;;5.90;;
56043;SDS011;41912;51.022;3.664;2023-02-04T11:36:50;14.98;;;5.65;;
56043;SDS011;41912;51.022;3.664;2023-02-04T11:39:26;13.52;;;5.22;;
56043;SDS011;41912;51.022;3.664;2023-02-04T11:41:57;16.40;;;6.35;;
56043;SDS011;41912;51.022;3.664;2023-02-04T11:44:23;14.50;;;5.47;;
56043;SDS011;41912;51.022;3.664;2023-02-04T11:46:52;17.15;;;5.22;;
56043;SDS011;41912;51.022;3.664;2023-02-04T11:49:20;11.52;;;5.50;;
56043;SDS011;41912;51.022;3.664;2023-02-04T11:51:47;10.73;;;5.18;;
56043;SDS011;41912;51.022;3.664;2023-02-04T11:54:14;17.50;;;5.78;;
56043;SDS011;41912;51.022;3.664;2023-02-04T11:56:43;16.40;;;5.75;;
56043;SDS011;41912;51.022;3.664;2023-02-04T11:59:10;16.58;;;5.50;;
56043;SDS011;41912;51.022;3.664;2023-02-04T12:01:37;10.85;;;5.55;;
56043;SDS011;41912;51.022;3.664;2023-02-04T12:04:04;16.63;;;5.22;;
56043;SDS011;41912;51.022;3.664;2023-02-04T12:06:33;13.02;;;5.63;;
56043;SDS011;41912;51.022;3.664;2023-02-04T12:09:34;15.15;;;5.20;;
56043;SDS011;41912;51.022;3.664;2023-02-04T12:11:59;14.88;;;5.75;;
56043;SDS011;41912;51.022;3.664;2023-02-04T12:14:31;19.45;;;5.97;;
56043;SDS011;41912;51.022;3.664;2023-02-04T12:16:58;16.30;;;6.00;;
56043;SDS011;41912;51.022;3.664;2023-02-04T12:19:24;18.10;;;5.72;;
56043;SDS011;41912;51.022;3.664;2023-02-04T12:21:51;14.20;;;5.07;;
56043;SDS011;41912;51.022;3.664;2023-02-04T12:24:17;15.88;;;6.03;;
56043;SDS011;41912;51.022;3.664;2023-02-04T12:26:42;14.55;;;6.20;;
56043;SDS011;41912;51.022;3.664;2023-02-04T12:29:08;15.32;;;5.32;;
56043;SDS011;41912;51.022;3.664;2023-02-04T12:31:34;10.43;;;5.03;;
56043;SDS011;41912;51.022;3.664;2023-02-04T12:34:00;14.90;;;4.65;;
56043;SDS011;41912;51.022;3.664;2023-02-04T12:36:26;14.30;;;5.25;;
56043;SDS011;41912;51.022;3.664;2023-02-04T12:38:53;12.35;;;4.70;;
56043;SDS011;41912;51.022;3.664;2023-02-04T12:41:19;15.10;;;4.57;;
56043;SDS011;41912;51.022;3.664;2023-02-04T12:43:45;16.67;;;5.75;;
56043;SDS011;41912;51.022;3.664;2023-02-04T12:46:14;12.27;;;5.60;;
56043;SDS011;41912;51.022;3.664;2023-02-04T12:48:40;12.63;;;4.90;;
56043;SDS011;41912;51.022;3.664;2023-02-04T12:51:06;18.85;;;5.72;;
56043;SDS011;41912;51.022;3.664;2023-02-04T12:53:32;15.93;;;5.70;;
56043;SDS011;41912;51.022;3.664;2023-02-04T12:55:58;12.93;;;5.10;;
56043;SDS011;41912;51.022;3.664;2023-02-04T12:58:24;14.43;;;5.07;;
56043;SDS011;41912;51.022;3.664;2023-02-04T13:00:49;12.05;;;5.05;;
56043;SDS011;41912;51.022;3.664;2023-02-04T13:03:15;13.48;;;4.95;;
56043;SDS011;41912;51.022;3.664;2023-02-04T13:05:41;13.30;;;4.85;;
56043;SDS011;41912;51.022;3.664;2023-02-04T13:08:06;15.32;;;5.32;;
56043;SDS011;41912;51.022;3.664;2023-02-04T13:10:32;22.98;;;5.65;;
56043;SDS011;41912;51.022;3.664;2023-02-04T13:12:58;12.48;;;4.40;;
56043;SDS011;41912;51.022;3.664;2023-02-04T13:15:24;17.52;;;4.85;;
56043;SDS011;41912;51.022;3.664;2023-02-04T13:17:50;12.20;;;5.28;;
56043;SDS011;41912;51.022;3.664;2023-02-04T13:20:16;11.68;;;4.95;;
56043;SDS011;41912;51.022;3.664;2023-02-04T13:22:42;10.10;;;4.40;;
56043;SDS011;41912;51.022;3.664;2023-02-04T13:25:08;13.48;;;4.15;;
56043;SDS011;41912;51.022;3.664;2023-02-04T13:27:35;10.73;;;4.10;;
56043;SDS011;41912;51.022;3.664;2023-02-04T13:30:05;13.43;;;4.78;;
56043;SDS011;41912;51.022;3.664;2023-02-04T13:32:32;11.20;;;4.28;;
56043;SDS011;41912;51.022;3.664;2023-02-04T13:34:58;10.18;;;4.22;;
56043;SDS011;41912;51.022;3.664;2023-02-04T13:37:24;15.95;;;4.90;;
56043;SDS011;41912;51.022;3.664;2023-02-04T13:39:49;13.98;;;4.63;;
56043;SDS011;41912;51.022;3.664;2023-02-04T13:42:15;14.77;;;4.32;;
56043;SDS011;41912;51.022;3.664;2023-02-04T13:44:41;8.50;;;4.38;;
56043;SDS011;41912;51.022;3.664;2023-02-04T13:47:06;10.38;;;4.53;;
56043;SDS011;41912;51.022;3.664;2023-02-04T13:49:32;19.20;;;5.28;;
56043;SDS011;41912;51.022;3.664;2023-02-04T13:51:58;15.50;;;4.63;;
56043;SDS011;41912;51.022;3.664;2023-02-04T13:54:24;10.73;;;5.05;;
56043;SDS011;41912;51.022;3.664;2023-02-04T13:56:49;13.90;;;4.60;;
56043;SDS011;41912;51.022;3.664;2023-02-04T13:59:15;16.27;;;4.70;;
56043;SDS011;41912;51.022;3.664;2023-02-04T14:01:41;12.90;;;5.68;;
56043;SDS011;41912;51.022;3.664;2023-02-04T14:04:06;12.35;;;5.10;;
56043;SDS011;41912;51.022;3.664;2023-02-04T14:06:32;14.68;;;5.05;;
56043;SDS011;41912;51.022;3.664;2023-02-04T14:09:02;12.27;;;5.03;;
56043;SDS011;41912;51.022;3.664;2023-02-04T14:11:28;12.35;;;4.88;;
56043;SDS011;41912;51.022;3.664;2023-02-04T14:13:54;12.25;;;5.20;;
56043;SDS011;41912;51.022;3.664;2023-02-04T14:16:20;13.43;;;4.78;;
56043;SDS011;41912;51.022;3.664;2023-02-04T14:18:46;15.88;;;5.28;;
56043;SDS011;41912;51.022;3.664;2023-02-04T14:21:12;12.75;;;4.55;;
56043;SDS011;41912;51.022;3.664;2023-02-04T14:23:37;12.05;;;5.22;;
56043;SDS011;41912;51.022;3.664;2023-02-04T14:26:03;12.88;;;4.65;;
56043;SDS011;41912;51.022;3.664;2023-02-04T14:28:29;15.55;;;4.80;;
56043;SDS011;41912;51.022;3.664;2023-02-04T14:30:54;13.82;;;4.88;;
56043;SDS011;41912;51.022;3.664;2023-02-04T14:33:20;11.90;;;4.78;;
56043;SDS011;41912;51.022;3.664;2023-02-04T14:35:46;15.32;;;5.30;;
56043;SDS011;41912;51.022;3.664;2023-02-04T14:38:12;15.10;;;5.18;;
56043;SDS011;41912;51.022;3.664;2023-02-04T14:40:40;10.23;;;4.80;;
56043;SDS011;41912;51.022;3.664;2023-02-04T14:43:06;14.50;;;5.20;;
56043;SDS011;41912;51.022;3.664;2023-02-04T14:45:35;13.57;;;4.60;;
56043;SDS011;41912;51.022;3.664;2023-02-04T14:48:01;10.43;;;4.45;;
56043;SDS011;41912;51.022;3.664;2023-02-04T14:50:26;13.02;;;4.80;;